sensor_id;sensor_type;location;lat;lon;timestamp;temperature;humidity
37108;DHT22;23019;49.300;6.846;2022-11-20T00:00:45;21.60;99.90
37108;DHT22;23019;49.300;6.846;2022-11-20T00:02:45;21.60;99.90
37108;DHT22;23019;49.300;6.846;2022-11-20T00:04:46;21.60;99.90
37108;DHT22;23019;49.300;6.846;2022-11-20T00:06:47;21.50;99.90
37108;DHT22;23019;49.300;6.846;2022-11-20T00:08:48;21.50;99.90
37108;DHT22;23019;49.300;6.846;2022-11-20T00:10:48;21.50;99.90
37108;DHT22;23019;49.300;6.846;2022-11-20T00:12:49;21.40;99.90
37108;DHT22;23019;49.300;6.846;2022-11-20T00:14:50;21.40;99.90
37108;DHT22;23019;49.300;6.846;2022-11-20T00:16:50;21.30;99.90
37108;DHT22;23019;49.300;6.846;2022-11-20T00:18:51;21.30;99.90
37108;DHT22;23019;49.300;6.846;2022-11-20T00:20:52;21.30;99.90
37108;DHT22;23019;49.300;6.846;2022-11-20T00:22:53;21.30;99.90
37108;DHT22;23019;49.300;6.846;2022-11-20T00:24:54;21.20;99.90
37108;DHT22;23019;49.300;6.846;2022-11-20T00:26:54;21.20;99.90
37108;DHT22;23019;49.300;6.846;2022-11-20T00:29:00;21.20;99.90
37108;DHT22;23019;49.300;6.846;2022-11-20T00:31:09;21.10;99.90
37108;DHT22;23019;49.300;6.846;2022-11-20T00:33:10;21.10;99.90
37108;DHT22;23019;49.300;6.846;2022-11-20T00:35:11;21.10;99.90
37108;DHT22;23019;49.300;6.846;2022-11-20T00:37:11;21.10;99.90
37108;DHT22;23019;49.300;6.846;2022-11-20T00:39:12;21.00;99.90
37108;DHT22;23019;49.300;6.846;2022-11-20T00:41:14;21.00;99.90
37108;DHT22;23019;49.300;6.846;2022-11-20T00:43:15;21.00;99.90
37108;DHT22;23019;49.300;6.846;2022-11-20T00:45:15;21.00;99.90
37108;DHT22;23019;49.300;6.846;2022-11-20T00:47:16;20.90;99.90
37108;DHT22;23019;49.300;6.846;2022-11-20T00:49:17;20.90;99.90
37108;DHT22;23019;49.300;6.846;2022-11-20T00:51:20;20.90;99.90
37108;DHT22;23019;49.300;6.846;2022-11-20T00:53:21;20.90;99.90
37108;DHT22;23019;49.300;6.846;2022-11-20T00:55:22;20.90;99.90
37108;DHT22;23019;49.300;6.846;2022-11-20T00:57:23;20.80;99.90
37108;DHT22;23019;49.300;6.846;2022-11-20T00:59:23;20.80;99.90
37108;DHT22;23019;49.300;6.846;2022-11-20T01:01:25;20.80;99.90
37108;DHT22;23019;49.300;6.846;2022-11-20T01:03:26;20.80;99.90
37108;DHT22;23019;49.300;6.846;2022-11-20T01:05:26;20.80;99.90
37108;DHT22;23019;49.300;6.846;2022-11-20T01:07:27;20.80;99.90
37108;DHT22;23019;49.300;6.846;2022-11-20T01:09:28;20.70;99.90
37108;DHT22;23019;49.300;6.846;2022-11-20T01:11:37;20.70;99.90
37108;DHT22;23019;49.300;6.846;2022-11-20T01:13:39;20.70;99.90
37108;DHT22;23019;49.300;6.846;2022-11-20T01:15:41;20.70;99.90
37108;DHT22;23019;49.300;6.846;2022-11-20T01:17:42;20.70;99.90
37108;DHT22;23019;49.300;6.846;2022-11-20T01:19:42;20.60;99.90
37108;DHT22;23019;49.300;6.846;2022-11-20T01:21:45;20.60;99.90
37108;DHT22;23019;49.300;6.846;2022-11-20T01:23:46;20.60;99.90
37108;DHT22;23019;49.300;6.846;2022-11-20T01:25:47;20.60;99.90
37108;DHT22;23019;49.300;6.846;2022-11-20T01:27:48;20.60;99.90
37108;DHT22;23019;49.300;6.846;2022-11-20T01:29:48;20.60;99.90
37108;DHT22;23019;49.300;6.846;2022-11-20T01:31:49;20.60;99.90
37108;DHT22;23019;49.300;6.846;2022-11-20T01:33:52;20.50;99.90
37108;DHT22;23019;49.300;6.846;2022-11-20T01:35:53;20.50;99.90
37108;DHT22;23019;49.300;6.846;2022-11-20T01:38:03;20.50;99.90
37108;DHT22;23019;49.300;6.846;2022-11-20T01:40:04;20.50;99.90
37108;DHT22;23019;49.300;6.846;2022-11-20T01:42:05;20.50;99.90
37108;DHT22;23019;49.300;6.846;2022-11-20T01:44:50;20.50;99.90
37108;DHT22;23019;49.300;6.846;2022-11-20T01:46:59;20.50;99.90
37108;DHT22;23019;49.300;6.846;2022-11-20T01:51:19;20.40;99.90
37108;DHT22;23019;49.300;6.846;2022-11-20T01:53:25;20.40;99.90
37108;DHT22;23019;49.300;6.846;2022-11-20T01:55:34;20.40;99.90
37108;DHT22;23019;49.300;6.846;2022-11-20T01:57:37;20.40;99.90
37108;DHT22;23019;49.300;6.846;2022-11-20T01:59:43;20.40;99.90
37108;DHT22;23019;49.300;6.846;2022-11-20T02:01:45;20.30;99.90
37108;DHT22;23019;49.300;6.846;2022-11-20T02:03:46;20.30;99.90
37108;DHT22;23019;49.300;6.846;2022-11-20T02:06:04;20.30;99.90
37108;DHT22;23019;49.300;6.846;2022-11-20T02:08:07;20.30;99.90
37108;DHT22;23019;49.300;6.846;2022-11-20T02:10:08;20.30;99.90
37108;DHT22;23019;49.300;6.846;2022-11-20T02:12:08;20.30;99.90
37108;DHT22;23019;49.300;6.846;2022-11-20T02:14:29;20.20;99.90
37108;DHT22;23019;49.300;6.846;2022-11-20T02:16:39;20.30;99.90
37108;DHT22;23019;49.300;6.846;2022-11-20T02:18:41;20.20;99.90
37108;DHT22;23019;49.300;6.846;2022-11-20T02:20:44;20.20;99.90
37108;DHT22;23019;49.300;6.846;2022-11-20T02:23:01;20.20;99.90
37108;DHT22;23019;49.300;6.846;2022-11-20T02:25:03;20.20;99.90
37108;DHT22;23019;49.300;6.846;2022-11-20T02:27:08;20.20;99.90
37108;DHT22;23019;49.300;6.846;2022-11-20T02:29:10;20.20;99.90
37108;DHT22;23019;49.300;6.846;2022-11-20T02:31:10;21.70;99.90
37108;DHT22;23019;49.300;6.846;2022-11-20T02:33:12;27.70;99.90
37108;DHT22;23019;49.300;6.846;2022-11-20T02:37:19;40.20;99.90
37108;DHT22;23019;49.300;6.846;2022-11-20T02:39:22;41.30;99.90
37108;DHT22;23019;49.300;6.846;2022-11-20T02:41:51;39.50;99.90
37108;DHT22;23019;49.300;6.846;2022-11-20T02:43:53;39.00;99.90
37108;DHT22;23019;49.300;6.846;2022-11-20T02:45:53;38.80;99.90
37108;DHT22;23019;49.300;6.846;2022-11-20T02:47:54;38.50;99.90
37108;DHT22;23019;49.300;6.846;2022-11-20T02:49:54;38.20;99.90
37108;DHT22;23019;49.300;6.846;2022-11-20T02:51:55;37.90;99.90
37108;DHT22;23019;49.300;6.846;2022-11-20T02:53:56;37.50;99.90
37108;DHT22;23019;49.300;6.846;2022-11-20T02:55:57;37.10;99.90
37108;DHT22;23019;49.300;6.846;2022-11-20T02:57:57;36.70;99.90
37108;DHT22;23019;49.300;6.846;2022-11-20T02:59:58;36.30;99.90
37108;DHT22;23019;49.300;6.846;2022-11-20T03:01:58;36.00;99.90
37108;DHT22;23019;49.300;6.846;2022-11-20T03:03:59;35.60;99.90
37108;DHT22;23019;49.300;6.846;2022-11-20T03:06:00;35.20;99.90
37108;DHT22;23019;49.300;6.846;2022-11-20T03:08:00;34.80;99.90
37108;DHT22;23019;49.300;6.846;2022-11-20T03:10:01;34.50;99.90
37108;DHT22;23019;49.300;6.846;2022-11-20T03:12:02;34.10;99.90
37108;DHT22;23019;49.300;6.846;2022-11-20T03:14:06;33.80;99.90
37108;DHT22;23019;49.300;6.846;2022-11-20T03:16:09;33.40;99.90
37108;DHT22;23019;49.300;6.846;2022-11-20T03:18:10;33.10;99.90
37108;DHT22;23019;49.300;6.846;2022-11-20T03:20:11;32.80;99.90
37108;DHT22;23019;49.300;6.846;2022-11-20T03:22:12;32.50;99.90
37108;DHT22;23019;49.300;6.846;2022-11-20T03:24:13;32.20;99.90
37108;DHT22;23019;49.300;6.846;2022-11-20T03:28:15;31.60;99.90
37108;DHT22;23019;49.300;6.846;2022-11-20T03:30:15;31.30;99.90
37108;DHT22;23019;49.300;6.846;2022-11-20T03:32:16;31.00;99.90
37108;DHT22;23019;49.300;6.846;2022-11-20T03:34:17;30.80;99.90
37108;DHT22;23019;49.300;6.846;2022-11-20T03:36:19;30.50;99.90
37108;DHT22;23019;49.300;6.846;2022-11-20T03:38:20;30.30;99.90
37108;DHT22;23019;49.300;6.846;2022-11-20T03:40:20;30.00;99.90
37108;DHT22;23019;49.300;6.846;2022-11-20T03:42:21;29.80;99.90
37108;DHT22;23019;49.300;6.846;2022-11-20T03:44:40;29.50;99.90
37108;DHT22;23019;49.300;6.846;2022-11-20T03:46:40;29.30;99.90
37108;DHT22;23019;49.300;6.846;2022-11-20T03:48:41;29.10;99.90
37108;DHT22;23019;49.300;6.846;2022-11-20T03:50:42;28.90;99.90
37108;DHT22;23019;49.300;6.846;2022-11-20T03:52:42;28.70;99.90
37108;DHT22;23019;49.300;6.846;2022-11-20T03:54:43;28.50;99.90
37108;DHT22;23019;49.300;6.846;2022-11-20T03:56:44;28.20;99.90
37108;DHT22;23019;49.300;6.846;2022-11-20T03:58:44;28.10;99.90
37108;DHT22;23019;49.300;6.846;2022-11-20T04:00:45;27.90;99.90
37108;DHT22;23019;49.300;6.846;2022-11-20T04:02:46;27.70;99.90
37108;DHT22;23019;49.300;6.846;2022-11-20T04:04:46;27.60;99.90
37108;DHT22;23019;49.300;6.846;2022-11-20T04:06:47;27.30;99.90
37108;DHT22;23019;49.300;6.846;2022-11-20T04:08:48;27.20;99.90
37108;DHT22;23019;49.300;6.846;2022-11-20T04:10:48;27.10;99.90
37108;DHT22;23019;49.300;6.846;2022-11-20T04:12:49;26.90;99.90
37108;DHT22;23019;49.300;6.846;2022-11-20T04:14:49;26.70;99.90
37108;DHT22;23019;49.300;6.846;2022-11-20T04:16:50;26.60;99.90
37108;DHT22;23019;49.300;6.846;2022-11-20T04:18:52;26.40;99.90
37108;DHT22;23019;49.300;6.846;2022-11-20T04:20:56;26.30;99.90
37108;DHT22;23019;49.300;6.846;2022-11-20T04:22:57;26.20;99.90
37108;DHT22;23019;49.300;6.846;2022-11-20T04:24:58;26.00;99.90
37108;DHT22;23019;49.300;6.846;2022-11-20T04:26:58;25.90;99.90
37108;DHT22;23019;49.300;6.846;2022-11-20T04:28:59;25.80;99.90
37108;DHT22;23019;49.300;6.846;2022-11-20T04:31:21;26.20;99.90
37108;DHT22;23019;49.300;6.846;2022-11-20T04:33:22;31.30;99.90
37108;DHT22;23019;49.300;6.846;2022-11-20T04:35:23;37.30;99.90
37108;DHT22;23019;49.300;6.846;2022-11-20T04:37:24;41.40;99.90
37108;DHT22;23019;49.300;6.846;2022-11-20T04:39:24;40.50;99.90
37108;DHT22;23019;49.300;6.846;2022-11-20T04:41:31;40.10;99.90
37108;DHT22;23019;49.300;6.846;2022-11-20T04:43:32;39.90;99.90
37108;DHT22;23019;49.300;6.846;2022-11-20T04:45:33;39.60;99.90
37108;DHT22;23019;49.300;6.846;2022-11-20T04:47:34;39.30;99.90
37108;DHT22;23019;49.300;6.846;2022-11-20T04:49:35;38.90;99.90
37108;DHT22;23019;49.300;6.846;2022-11-20T04:51:35;38.50;99.90
37108;DHT22;23019;49.300;6.846;2022-11-20T04:53:36;38.10;99.90
37108;DHT22;23019;49.300;6.846;2022-11-20T04:55:37;37.70;99.90
37108;DHT22;23019;49.300;6.846;2022-11-20T04:57:37;37.30;99.90
37108;DHT22;23019;49.300;6.846;2022-11-20T04:59:38;36.90;99.90
37108;DHT22;23019;49.300;6.846;2022-11-20T05:01:38;36.50;99.90
37108;DHT22;23019;49.300;6.846;2022-11-20T05:03:41;36.10;99.90
37108;DHT22;23019;49.300;6.846;2022-11-20T05:05:41;35.70;99.90
37108;DHT22;23019;49.300;6.846;2022-11-20T05:07:42;35.30;99.90
37108;DHT22;23019;49.300;6.846;2022-11-20T05:09:43;35.00;99.90
37108;DHT22;23019;49.300;6.846;2022-11-20T05:11:44;34.60;99.90
37108;DHT22;23019;49.300;6.846;2022-11-20T05:13:45;34.20;99.90
37108;DHT22;23019;49.300;6.846;2022-11-20T05:15:45;33.90;99.90
37108;DHT22;23019;49.300;6.846;2022-11-20T05:17:48;33.60;99.90
37108;DHT22;23019;49.300;6.846;2022-11-20T05:19:48;33.20;99.90
37108;DHT22;23019;49.300;6.846;2022-11-20T05:21:49;32.90;99.90
37108;DHT22;23019;49.300;6.846;2022-11-20T05:23:50;32.60;99.90
37108;DHT22;23019;49.300;6.846;2022-11-20T05:25:54;32.30;99.90
37108;DHT22;23019;49.300;6.846;2022-11-20T05:27:55;32.00;99.90
37108;DHT22;23019;49.300;6.846;2022-11-20T05:29:56;31.70;99.90
37108;DHT22;23019;49.300;6.846;2022-11-20T05:31:56;31.50;99.90
37108;DHT22;23019;49.300;6.846;2022-11-20T05:33:57;31.20;99.90
37108;DHT22;23019;49.300;6.846;2022-11-20T05:35:58;30.90;99.90
37108;DHT22;23019;49.300;6.846;2022-11-20T05:37:59;30.60;99.90
37108;DHT22;23019;49.300;6.846;2022-11-20T05:39:59;30.40;99.90
37108;DHT22;23019;49.300;6.846;2022-11-20T05:42:00;31.10;99.90
37108;DHT22;23019;49.300;6.846;2022-11-20T05:44:39;36.30;99.90
37108;DHT22;23019;49.300;6.846;2022-11-20T05:46:40;41.10;99.90
37108;DHT22;23019;49.300;6.846;2022-11-20T05:48:41;39.70;99.90
37108;DHT22;23019;49.300;6.846;2022-11-20T05:50:42;38.90;99.90
37108;DHT22;23019;49.300;6.846;2022-11-20T05:52:43;38.60;99.90
37108;DHT22;23019;49.300;6.846;2022-11-20T05:54:43;38.30;99.90
37108;DHT22;23019;49.300;6.846;2022-11-20T05:56:44;38.00;99.90
37108;DHT22;23019;49.300;6.846;2022-11-20T05:58:45;37.60;99.90
37108;DHT22;23019;49.300;6.846;2022-11-20T06:00:46;37.30;99.90
37108;DHT22;23019;49.300;6.846;2022-11-20T06:02:47;37.00;99.90
37108;DHT22;23019;49.300;6.846;2022-11-20T06:04:48;36.60;99.90
37108;DHT22;23019;49.300;6.846;2022-11-20T06:06:48;36.20;99.90
37108;DHT22;23019;49.300;6.846;2022-11-20T06:08:49;35.80;99.90
37108;DHT22;23019;49.300;6.846;2022-11-20T06:10:50;35.40;99.90
37108;DHT22;23019;49.300;6.846;2022-11-20T06:12:50;35.00;99.90
37108;DHT22;23019;49.300;6.846;2022-11-20T06:14:51;34.70;99.90
37108;DHT22;23019;49.300;6.846;2022-11-20T06:16:52;34.40;99.90
37108;DHT22;23019;49.300;6.846;2022-11-20T06:18:52;34.00;99.90
37108;DHT22;23019;49.300;6.846;2022-11-20T06:21:09;33.70;99.90
37108;DHT22;23019;49.300;6.846;2022-11-20T06:23:10;33.30;99.90
37108;DHT22;23019;49.300;6.846;2022-11-20T06:25:11;33.00;99.90
37108;DHT22;23019;49.300;6.846;2022-11-20T06:27:12;32.70;99.90
37108;DHT22;23019;49.300;6.846;2022-11-20T06:29:13;32.40;99.90
37108;DHT22;23019;49.300;6.846;2022-11-20T06:31:16;32.10;99.90
37108;DHT22;23019;49.300;6.846;2022-11-20T06:33:17;31.80;99.90
37108;DHT22;23019;49.300;6.846;2022-11-20T06:35:17;31.50;99.90
37108;DHT22;23019;49.300;6.846;2022-11-20T06:37:18;31.20;99.90
37108;DHT22;23019;49.300;6.846;2022-11-20T06:39:19;31.00;99.90
37108;DHT22;23019;49.300;6.846;2022-11-20T06:41:21;30.70;99.90
37108;DHT22;23019;49.300;6.846;2022-11-20T06:43:24;30.50;99.90
37108;DHT22;23019;49.300;6.846;2022-11-20T06:45:24;30.40;99.90
37108;DHT22;23019;49.300;6.846;2022-11-20T06:47:25;34.20;99.90
37108;DHT22;23019;49.300;6.846;2022-11-20T06:49:26;40.40;99.90
37108;DHT22;23019;49.300;6.846;2022-11-20T06:51:26;40.80;99.90
37108;DHT22;23019;49.300;6.846;2022-11-20T06:53:27;39.40;99.90
37108;DHT22;23019;49.300;6.846;2022-11-20T06:55:27;38.70;99.90
37108;DHT22;23019;49.300;6.846;2022-11-20T06:57:28;38.40;99.90
37108;DHT22;23019;49.300;6.846;2022-11-20T06:59:29;38.10;99.90
37108;DHT22;23019;49.300;6.846;2022-11-20T07:01:29;37.80;99.90
37108;DHT22;23019;49.300;6.846;2022-11-20T07:03:30;37.40;99.90
37108;DHT22;23019;49.300;6.846;2022-11-20T07:05:31;37.10;99.90
37108;DHT22;23019;49.300;6.846;2022-11-20T07:07:31;36.70;99.90
37108;DHT22;23019;49.300;6.846;2022-11-20T07:09:32;36.30;99.90
37108;DHT22;23019;49.300;6.846;2022-11-20T07:11:34;36.00;99.90
37108;DHT22;23019;49.300;6.846;2022-11-20T07:13:34;35.60;99.90
37108;DHT22;23019;49.300;6.846;2022-11-20T07:15:35;35.20;99.90
37108;DHT22;23019;49.300;6.846;2022-11-20T07:17:35;34.90;99.90
37108;DHT22;23019;49.300;6.846;2022-11-20T07:19:36;34.50;99.90
37108;DHT22;23019;49.300;6.846;2022-11-20T07:21:37;34.20;99.90
37108;DHT22;23019;49.300;6.846;2022-11-20T07:23:37;33.80;99.90
37108;DHT22;23019;49.300;6.846;2022-11-20T07:25:38;33.50;99.90
37108;DHT22;23019;49.300;6.846;2022-11-20T07:27:39;33.20;99.90
37108;DHT22;23019;49.300;6.846;2022-11-20T07:29:39;32.90;99.90
37108;DHT22;23019;49.300;6.846;2022-11-20T07:31:40;32.60;99.90
37108;DHT22;23019;49.300;6.846;2022-11-20T07:33:41;32.30;99.90
37108;DHT22;23019;49.300;6.846;2022-11-20T07:35:41;32.00;99.90
37108;DHT22;23019;49.300;6.846;2022-11-20T07:37:42;31.70;99.90
37108;DHT22;23019;49.300;6.846;2022-11-20T07:39:43;31.40;99.90
37108;DHT22;23019;49.300;6.846;2022-11-20T07:41:43;31.20;99.90
37108;DHT22;23019;49.300;6.846;2022-11-20T07:43:44;30.90;99.90
37108;DHT22;23019;49.300;6.846;2022-11-20T07:45:44;30.60;99.90
37108;DHT22;23019;49.300;6.846;2022-11-20T07:47:45;30.40;99.90
37108;DHT22;23019;49.300;6.846;2022-11-20T07:49:46;31.30;99.90
37108;DHT22;23019;49.300;6.846;2022-11-20T07:51:50;37.10;99.90
37108;DHT22;23019;49.300;6.846;2022-11-20T07:53:52;41.30;99.90
37108;DHT22;23019;49.300;6.846;2022-11-20T07:55:52;40.00;99.90
37108;DHT22;23019;49.300;6.846;2022-11-20T07:57:57;38.90;99.90
37108;DHT22;23019;49.300;6.846;2022-11-20T07:59:57;38.30;99.90
37108;DHT22;23019;49.300;6.846;2022-11-20T08:01:58;38.10;99.90
37108;DHT22;23019;49.300;6.846;2022-11-20T08:03:59;37.80;99.90
37108;DHT22;23019;49.300;6.846;2022-11-20T08:06:00;37.40;99.90
37108;DHT22;23019;49.300;6.846;2022-11-20T08:08:01;37.10;99.90
37108;DHT22;23019;49.300;6.846;2022-11-20T08:10:02;36.80;99.90
37108;DHT22;23019;49.300;6.846;2022-11-20T08:12:03;36.40;99.90
37108;DHT22;23019;49.300;6.846;2022-11-20T08:14:22;36.10;99.90
37108;DHT22;23019;49.300;6.846;2022-11-20T08:16:23;35.60;99.90
37108;DHT22;23019;49.300;6.846;2022-11-20T08:18:23;35.20;99.90
37108;DHT22;23019;49.300;6.846;2022-11-20T08:20:24;34.90;99.90
37108;DHT22;23019;49.300;6.846;2022-11-20T08:22:25;34.60;99.90
37108;DHT22;23019;49.300;6.846;2022-11-20T08:24:25;34.20;99.90
37108;DHT22;23019;49.300;6.846;2022-11-20T08:26:27;33.80;99.90
37108;DHT22;23019;49.300;6.846;2022-11-20T08:28:27;33.50;99.90
37108;DHT22;23019;49.300;6.846;2022-11-20T08:30:29;33.20;99.90
37108;DHT22;23019;49.300;6.846;2022-11-20T08:32:30;32.90;99.90
37108;DHT22;23019;49.300;6.846;2022-11-20T08:34:30;32.60;99.90
37108;DHT22;23019;49.300;6.846;2022-11-20T08:36:33;32.30;99.90
37108;DHT22;23019;49.300;6.846;2022-11-20T08:38:34;32.00;99.90
37108;DHT22;23019;49.300;6.846;2022-11-20T08:40:35;31.70;99.90
37108;DHT22;23019;49.300;6.846;2022-11-20T08:42:35;31.40;99.90
37108;DHT22;23019;49.300;6.846;2022-11-20T08:44:36;31.10;99.90
37108;DHT22;23019;49.300;6.846;2022-11-20T08:46:39;30.90;99.90
37108;DHT22;23019;49.300;6.846;2022-11-20T08:48:41;30.70;99.90
37108;DHT22;23019;49.300;6.846;2022-11-20T08:50:41;30.40;99.90
37108;DHT22;23019;49.300;6.846;2022-11-20T08:52:42;30.20;99.90
37108;DHT22;23019;49.300;6.846;2022-11-20T08:54:43;33.50;99.90
37108;DHT22;23019;49.300;6.846;2022-11-20T08:56:43;39.90;99.90
37108;DHT22;23019;49.300;6.846;2022-11-20T08:58:44;40.80;99.90
37108;DHT22;23019;49.300;6.846;2022-11-20T09:00:45;39.30;99.90
37108;DHT22;23019;49.300;6.846;2022-11-20T09:02:45;38.50;99.90
37108;DHT22;23019;49.300;6.846;2022-11-20T09:04:46;38.20;99.90
37108;DHT22;23019;49.300;6.846;2022-11-20T09:06:47;37.90;99.90
37108;DHT22;23019;49.300;6.846;2022-11-20T09:08:54;37.40;99.90
37108;DHT22;23019;49.300;6.846;2022-11-20T09:10:56;37.10;99.90
37108;DHT22;23019;49.300;6.846;2022-11-20T09:12:57;37.80;99.90
37108;DHT22;23019;49.300;6.846;2022-11-20T09:14:58;43.90;99.90
37108;DHT22;23019;49.300;6.846;2022-11-20T09:16:59;52.50;99.90
37108;DHT22;23019;49.300;6.846;2022-11-20T09:18:59;56.20;99.90
37108;DHT22;23019;49.300;6.846;2022-11-20T09:21:02;56.10;99.90
37108;DHT22;23019;49.300;6.846;2022-11-20T09:23:03;54.90;99.90
37108;DHT22;23019;49.300;6.846;2022-11-20T09:25:04;53.30;99.90
37108;DHT22;23019;49.300;6.846;2022-11-20T09:27:05;51.70;99.90
37108;DHT22;23019;49.300;6.846;2022-11-20T09:29:05;52.00;99.90
37108;DHT22;23019;49.300;6.846;2022-11-20T09:31:07;55.10;99.90
37108;DHT22;23019;49.300;6.846;2022-11-20T09:33:08;56.60;99.90
37108;DHT22;23019;49.300;6.846;2022-11-20T09:35:10;56.50;99.90
37108;DHT22;23019;49.300;6.846;2022-11-20T09:37:10;55.40;99.90
37108;DHT22;23019;49.300;6.846;2022-11-20T09:39:11;54.10;99.90
37108;DHT22;23019;49.300;6.846;2022-11-20T09:44:44;51.70;99.90
37108;DHT22;23019;49.300;6.846;2022-11-20T09:46:53;51.80;99.90
37108;DHT22;23019;49.300;6.846;2022-11-20T09:49:02;55.80;99.90
37108;DHT22;23019;49.300;6.846;2022-11-20T09:54:05;56.40;99.90
37108;DHT22;23019;49.300;6.846;2022-11-20T09:56:03;53.10;99.90
37108;DHT22;23019;49.300;6.846;2022-11-20T09:58:19;45.40;99.90
37108;DHT22;23019;49.300;6.846;2022-11-20T10:00:22;43.40;99.90
37108;DHT22;23019;49.300;6.846;2022-11-20T10:04:30;42.40;99.90
37108;DHT22;23019;49.300;6.846;2022-11-20T10:06:41;42.00;99.90
37108;DHT22;23019;49.300;6.846;2022-11-20T10:09:16;41.60;99.90
37108;DHT22;23019;49.300;6.846;2022-11-20T10:11:36;40.90;99.90
37108;DHT22;23019;49.300;6.846;2022-11-20T10:16:07;39.90;99.90
37108;DHT22;23019;49.300;6.846;2022-11-20T10:25:39;37.90;99.90
37108;DHT22;23019;49.300;6.846;2022-11-20T10:30:09;36.90;99.90
37108;DHT22;23019;49.300;6.846;2022-11-20T10:32:19;36.50;99.90
37108;DHT22;23019;49.300;6.846;2022-11-20T10:34:47;36.10;99.90
37108;DHT22;23019;49.300;6.846;2022-11-20T10:36:55;35.60;99.90
37108;DHT22;23019;49.300;6.846;2022-11-20T10:39:05;35.30;99.90
37108;DHT22;23019;49.300;6.846;2022-11-20T10:41:17;34.90;99.90
37108;DHT22;23019;49.300;6.846;2022-11-20T10:43:34;34.60;99.90
37108;DHT22;23019;49.300;6.846;2022-11-20T10:47:48;34.10;99.90
37108;DHT22;23019;49.300;6.846;2022-11-20T10:49:51;33.80;99.90
37108;DHT22;23019;49.300;6.846;2022-11-20T10:54:20;33.10;99.90
37108;DHT22;23019;49.300;6.846;2022-11-20T10:56:35;32.70;99.90
37108;DHT22;23019;49.300;6.846;2022-11-20T10:58:42;32.30;99.90
37108;DHT22;23019;49.300;6.846;2022-11-20T11:00:44;31.90;99.90
37108;DHT22;23019;49.300;6.846;2022-11-20T11:02:48;31.60;99.90
37108;DHT22;23019;49.300;6.846;2022-11-20T11:04:51;31.30;99.90
37108;DHT22;23019;49.300;6.846;2022-11-20T11:06:56;31.00;99.90
37108;DHT22;23019;49.300;6.846;2022-11-20T11:09:02;30.80;99.90
37108;DHT22;23019;49.300;6.846;2022-11-20T11:11:20;30.50;99.90
37108;DHT22;23019;49.300;6.846;2022-11-20T11:13:27;30.20;99.90
37108;DHT22;23019;49.300;6.846;2022-11-20T11:15:40;30.00;99.90
37108;DHT22;23019;49.300;6.846;2022-11-20T11:17:47;29.80;99.90
37108;DHT22;23019;49.300;6.846;2022-11-20T11:20:07;29.70;99.90
37108;DHT22;23019;49.300;6.846;2022-11-20T11:22:18;35.60;99.90
37108;DHT22;23019;49.300;6.846;2022-11-20T11:24:27;43.00;99.90
37108;DHT22;23019;49.300;6.846;2022-11-20T11:26:28;44.10;99.90
37108;DHT22;23019;49.300;6.846;2022-11-20T11:28:29;41.20;99.90
37108;DHT22;23019;49.300;6.846;2022-11-20T11:30:41;38.30;99.90
37108;DHT22;23019;49.300;6.846;2022-11-20T11:32:42;36.80;99.90
37108;DHT22;23019;49.300;6.846;2022-11-20T11:34:43;36.00;99.90
37108;DHT22;23019;49.300;6.846;2022-11-20T11:36:56;35.80;99.90
37108;DHT22;23019;49.300;6.846;2022-11-20T11:38:57;35.70;99.90
37108;DHT22;23019;49.300;6.846;2022-11-20T11:40:58;35.50;99.90
37108;DHT22;23019;49.300;6.846;2022-11-20T11:43:02;35.30;99.90
37108;DHT22;23019;49.300;6.846;2022-11-20T11:45:06;35.00;99.90
37108;DHT22;23019;49.300;6.846;2022-11-20T11:47:29;34.70;99.90
37108;DHT22;23019;49.300;6.846;2022-11-20T11:49:30;34.30;99.90
37108;DHT22;23019;49.300;6.846;2022-11-20T11:53:53;33.70;99.90
37108;DHT22;23019;49.300;6.846;2022-11-20T11:56:08;33.30;99.90
37108;DHT22;23019;49.300;6.846;2022-11-20T11:58:21;33.00;99.90
37108;DHT22;23019;49.300;6.846;2022-11-20T12:00:24;32.70;99.90
37108;DHT22;23019;49.300;6.846;2022-11-20T12:04:59;32.10;99.90
37108;DHT22;23019;49.300;6.846;2022-11-20T12:07:12;31.80;99.90
37108;DHT22;23019;49.300;6.846;2022-11-20T12:09:15;31.50;99.90
37108;DHT22;23019;49.300;6.846;2022-11-20T12:11:46;31.20;99.90
37108;DHT22;23019;49.300;6.846;2022-11-20T12:16:03;30.60;99.90
37108;DHT22;23019;49.300;6.846;2022-11-20T12:18:12;30.30;99.90
37108;DHT22;23019;49.300;6.846;2022-11-20T12:20:15;30.00;99.90
37108;DHT22;23019;49.300;6.846;2022-11-20T12:37:19;37.80;99.90
37108;DHT22;23019;49.300;6.846;2022-11-20T12:39:34;37.20;99.90
37108;DHT22;23019;49.300;6.846;2022-11-20T12:44:39;36.40;99.90
37108;DHT22;23019;49.300;6.846;2022-11-20T12:47:19;36.10;99.90
37108;DHT22;23019;49.300;6.846;2022-11-20T12:49:33;35.70;99.90
37108;DHT22;23019;49.300;6.846;2022-11-20T12:52:06;35.40;99.90
37108;DHT22;23019;49.300;6.846;2022-11-20T12:54:46;34.90;99.90
37108;DHT22;23019;49.300;6.846;2022-11-20T13:01:53;33.80;99.90
37108;DHT22;23019;49.300;6.846;2022-11-20T13:03:57;33.40;99.90
37108;DHT22;23019;49.300;6.846;2022-11-20T13:06:14;33.10;99.90
37108;DHT22;23019;49.300;6.846;2022-11-20T13:08:25;32.80;99.90
37108;DHT22;23019;49.300;6.846;2022-11-20T13:10:49;32.50;99.90
37108;DHT22;23019;49.300;6.846;2022-11-20T13:12:59;32.10;99.90
37108;DHT22;23019;49.300;6.846;2022-11-20T13:15:11;31.80;99.90
37108;DHT22;23019;49.300;6.846;2022-11-20T13:17:28;31.50;99.90
37108;DHT22;23019;49.300;6.846;2022-11-20T13:19:31;31.20;99.90
37108;DHT22;23019;49.300;6.846;2022-11-20T13:21:43;31.00;99.90
37108;DHT22;23019;49.300;6.846;2022-11-20T13:23:47;30.70;99.90
37108;DHT22;23019;49.300;6.846;2022-11-20T13:25:47;30.50;99.90
37108;DHT22;23019;49.300;6.846;2022-11-20T13:27:50;30.20;99.90
37108;DHT22;23019;49.300;6.846;2022-11-20T13:30:14;30.00;99.90
37108;DHT22;23019;49.300;6.846;2022-11-20T13:32:20;29.80;99.90
37108;DHT22;23019;49.300;6.846;2022-11-20T13:34:27;29.50;99.90
37108;DHT22;23019;49.300;6.846;2022-11-20T13:36:29;29.40;99.90
37108;DHT22;23019;49.300;6.846;2022-11-20T13:38:51;33.70;99.90
37108;DHT22;23019;49.300;6.846;2022-11-20T13:40:57;41.80;99.90
37108;DHT22;23019;49.300;6.846;2022-11-20T13:43:10;42.60;99.90
37108;DHT22;23019;49.300;6.846;2022-11-20T13:45:27;39.40;99.90
37108;DHT22;23019;49.300;6.846;2022-11-20T13:47:29;37.50;99.90
37108;DHT22;23019;49.300;6.846;2022-11-20T13:51:48;36.60;99.90
37108;DHT22;23019;49.300;6.846;2022-11-20T13:59:12;35.70;99.90
37108;DHT22;23019;49.300;6.846;2022-11-20T14:01:26;35.40;99.90
37108;DHT22;23019;49.300;6.846;2022-11-20T14:03:30;35.00;99.90
37108;DHT22;23019;49.300;6.846;2022-11-20T14:05:39;34.70;99.90
37108;DHT22;23019;49.300;6.846;2022-11-20T14:07:42;34.40;99.90
37108;DHT22;23019;49.300;6.846;2022-11-20T14:09:51;34.10;99.90
37108;DHT22;23019;49.300;6.846;2022-11-20T14:11:53;33.70;99.90